Tiempo atmosférico en la estación meteorológica de Cervera De Pisuerga, Palencia (1140 m.)



Fecha
DESCASC
Temp. máxima en grados centígrados (hora)
DESCASC
Temp. mínima en grados centígrados (hora)
DESCASC
Temp. media en grados centígrados
DESCASC
Racha de viento máxima en m/sg (hora)
DESCASC
Velocidad máxima media en intervalos de 10 minutos(hora)
DESCASC
Precipitaciones diarias en mm
DESCASC
Precipitaciones de 00:00 a 06:00 en mm
DESCASC
Precipitaciones de 06:00 a 12:00 en mm
DESCASC
Precipitaciones de 12:00 a 18:00 en mm
DESCASC
Precipitaciones de 18:00 a 24:00 en mm
DESCASC
22-04-2019 -- (--) -- (--) -- 11.67 (19:00) 5.56 (21:00) 0 0 0 0 0
21-04-2019 -- (--) -- (--) -- 13.61 (15:20) 5.83 (15:30) 0 0 0 0 0
20-04-2019 -- (--) -- (--) -- 12.5 (17:10) 5.83 (16:20) 0 0 0 0 0
19-04-2019 -- (--) -- (--) -- 13.33 (03:30) 5.83 (15:50) 6.4 5.6 0.6 0.2 0
18-04-2019 -- (--) -- (--) -- 12.78 (03:00) 6.11 (03:50) 15.8 3.2 1.6 5.6 5.4
17-04-2019 -- (--) -- (--) -- 20 (20:30) 9.44 (14:20) 0.2 0 0 0 0.2
16-04-2019 -- (--) -- (--) -- 10.56 (15:30) 6.11 (14:20) 0 0 0 0 0
15-04-2019 -- (--) -- (--) -- 17.5 (13:20) 9.72 (13:20) 4 0 0 4 0
14-04-2019 -- (--) -- (--) -- 10.83 (17:40) 4.72 (09:10) 0 0 0 0 0
13-04-2019 -- (--) -- (--) -- 12.5 (15:20) 6.39 (14:10) 0 0 0 0 0
12-04-2019 -- (--) -- (--) -- 7.22 (14:30) 4.17 (22:50) 0 0 0 0 0
11-04-2019 -- (--) -- (--) -- 10 (17:20) 3.89 (13:30) 0 0 0 0 0
10-04-2019 -- (--) -- (--) -- 9.17 (18:00) 4.72 (18:00) 4.4 0.6 2.6 1.2 0
09-04-2019 -- (--) -- (--) -- 11.94 (17:40) 5.56 (17:30) 1 0 1 0 0
08-04-2019 -- (--) -- (--) -- 12.78 (17:10) 6.39 (17:10) 2 1.8 0.2 0 0
07-04-2019 -- (--) -- (--) -- 12.78 (17:10) 6.94 (16:10) 2.4 0 0 0 2.4
06-04-2019 -- (--) -- (--) -- 10.28 (11:30) 5 (18:50) 1.4 0 0.4 0.8 0.2
05-04-2019 -- (--) -- (--) -- 12.5 (17:50) 5.56 (17:20) 5.8 2.4 3.2 0.2 0
04-04-2019 -- (--) -- (--) -- 15.28 (18:30) 6.94 (14:10) 0.8 0 0 0 0.8
03-04-2019 -- (--) -- (--) -- 14.72 (16:50) 6.39 (12:20) 0 0 0 0 0
02-04-2019 -- (--) -- (--) -- 8.89 (14:00) 5 (13:50) 0.8 0 0 0.6 0.2
01-04-2019 -- (--) -- (--) -- 7.78 (12:50) 5 (17:40) 0 0 0 0 0
31-03-2019 -- (--) -- (--) -- 10 (15:40) 4.72 (16:50) 0 0 0 0 0
30-03-2019 -- (--) -- (--) -- 9.44 (14:20) 5 (14:20) 0 0 0 0 0
29-03-2019 -- (--) -- (--) -- -- (--) -- (--) 0 0 0 0 0
28-03-2019 -- (--) -- (--) -- 9.44 (15:30) 5 (13:00) 0 0 0 0 0
27-03-2019 -- (--) -- (--) -- 9.44 (19:10) 5 (11:00) 0 0 0 0 0
26-03-2019 -- (--) -- (--) -- 11.67 (16:00) 5.83 (00:20) 0 0 0 0 0
25-03-2019 -- (--) -- (--) -- 11.67 (15:30) 5.83 (09:40) 0 0 0 0 0

Gráficas

Temp. máximas Temp. mínimas Temp. medias Precipitaciones Rachas de viento máximas Velocidades máximas media en intervalos de 10 minutos

Datos horarios

Fecha y hora oficial Temperatura (ºC) Velocidad del viento (km/h) Dirección del viento Racha (km/h) Dirección de racha Precipitación (mm) Presión (hPa) Tendencia (hPa) Humedad (%)
2019-04-23 23:00:00 2.7 3 Oeste 18 Oeste 0 869.8 2.1 71
2019-04-23 22:00:00 3.8 9 Sudoeste 24 Oeste 0 869.1 1.5 70
2019-04-23 21:00:00 5.1 10 Sudoeste 23 Sudoeste 0.2 868.2 1.7 69
2019-04-23 20:00:00 7.2 6 Oeste 31 Oeste 0 867.7 1 60
2019-04-23 19:00:00 5.7 13 Oeste 55 Sudoeste 0.2 867.6 0.5 71
2019-04-23 18:00:00 10.8 19 Sudoeste 40 Sur 0 866.5 -0.6 41
2019-04-23 17:00:00 10.1 17 Sudoeste 39 Sur 0 866.7 -0.5 42
2019-04-23 16:00:00 8.7 18 Sudoeste 40 Sur 0 867.1 -0.1 48
2019-04-23 15:00:00 8.4 19 Sudoeste 38 Sur 0 867.1 -0.1 50
2019-04-23 14:00:00 8.4 16 Sudoeste 36 Sur 0 867.2 0.5 58
2019-04-23 13:00:00 7.8 15 Sudoeste 34 Sur 0 867.2 0.8 60
2019-04-23 12:00:00 8.2 19 Sudoeste 36 Sur 0 867.2 0.8 65
2019-04-23 11:00:00 6.3 12 Sudoeste 33 Sur 0 866.7 0.8 74
2019-04-23 10:00:00 6 17 Sudoeste 36 Sur 0 866.4 0.5 78
2019-04-23 09:00:00 5.5 13 Sudoeste 40 Sudoeste 0.4 866.4 0 83
2019-04-23 08:00:00 5.7 23 Sudoeste 41 Sur 0.2 865.9 -0.9 87
2019-04-23 07:00:00 6 19 Sudoeste 39 Sudoeste 0 865.9 -1.3 84
2019-04-23 06:00:00 6.1 15 Sudoeste 42 Sur 0 866.4 -1.2 89
2019-04-23 05:00:00 5.9 13 Sudoeste 39 Sudoeste 0.2 866.8 -1.2 89
2019-04-23 04:00:00 6.4 24 Sudoeste 51 Sudoeste 0.4 867.2 -1.2 86
2019-04-23 03:00:00 7.2 19 Sudoeste 42 Oeste 0 867.6 -1.3 79
2019-04-23 02:00:00 7.1 15 Sudoeste 55 Sudoeste 0.6 868 -1.4 82
2019-04-23 01:00:00 7.7 13 Sur 29 Sur 0.2 868.4 -1.2 78
2019-04-23 00:00:00 9 15 Sur 26 Sur 0 868.9 -0.7 65
2019-04-22 23:00:00 9.1 13 Sur 23 Sur 0 869.4 -0.5 64
2019-04-22 22:00:00 9.8 18 Sur 27 Sur 0 869.6 -0.6 63
2019-04-22 21:00:00 10.5 20 Sur 30 Sur 0 869.6 -0.9 59
2019-04-22 20:00:00 11.1 17 Sur 27 Sur 0 869.9 -1.1 57
2019-04-22 19:00:00 11.2 18 Sudoeste 42 Sudoeste 0 870.2 -1.3 55
2019-04-22 18:00:00 12.7 16 Sudoeste 31 Sudoeste 0 870.5 -1.6 50
2019-04-22 17:00:00 12.4 16 Sudoeste 41 Sudoeste 0 871 -2 52
2019-04-22 16:00:00 12.5 12 Oeste 40 Sudoeste 0 871.5 -2.2 49
2019-04-22 15:00:00 14.1 19 Sur 33 Sudoeste 0 872.1 -2.1 53
2019-04-22 14:00:00 12.7 17 Sur 35 Sudoeste 0 873 -1.8 53
2019-04-22 13:00:00 11.9 18 Sudoeste 40 Sudoeste 0 873.7 -1.6 51
2019-04-22 12:00:00 11.6 15 Sudoeste 38 Sudoeste 0 874.2 -1.5 54
2019-04-22 11:00:00 10.4 14 Sudoeste 30 Oeste 0 874.8 -1 58
2019-04-22 10:00:00 7.4 6 Sur 13 Oeste 0 875.3 -0.9 73
2019-04-22 09:00:00 4.6 3 Oeste 18 Oeste 0 875.7 -1.2 84
2019-04-22 08:00:00 3.2 8 Noroeste 18 Oeste 0 875.8 -2 87
2019-04-22 07:00:00 3.3 9 Noroeste 17 Oeste 0 876.2 -2.4 87
2019-04-22 06:00:00 3.6 6 Oeste 16 Oeste 0 876.9 -2.5 82
2019-04-22 05:00:00 4.7 6 Noroeste 15 Oeste 0 877.8 -2.4 81
2019-04-22 04:00:00 4.8 6 Oeste 17 Oeste 0 878.6 -2.1 79
2019-04-22 03:00:00 5.1 10 Oeste 17 Oeste 0 879.4 -2 77
2019-04-22 02:00:00 5 10 Noroeste 18 Oeste 0 880.2 -1.6 76
2019-04-22 01:00:00 5.8 9 Oeste 17 Oeste 0 880.7 -1.2 76
2019-04-22 00:00:00 6.8 10 Noroeste 19 Oeste 0 881.4 -0.3 68
2019-04-21 23:00:00 7.2 10 Noroeste 20 Noroeste 0 881.8 0.1 66
2019-04-21 22:00:00 7.3 9 Norte 24 Norte 0 881.9 -0.1 65
2019-04-21 21:00:00 7.8 10 Norte 31 Noroeste 0 881.7 -0.7 59
2019-04-21 20:00:00 9.8 12 Norte 36 Noroeste 0 881.7 -1 54
2019-04-21 19:00:00 10.3 13 Norte 35 Norte 0 882 -1.4 55
2019-04-21 18:00:00 11.4 14 Norte 43 Norte 0 882.4 -1.4 51
2019-04-21 17:00:00 12.8 16 Norte 44 Norte 0 882.7 -1.9 46
2019-04-21 16:00:00 13.6 18 Norte 49 Noroeste 0 883.4 -1.7 42
2019-04-21 15:00:00 12.1 17 Norte 40 Norte 0 883.8 -1.7 42
2019-04-21 14:00:00 13.1 14 Norte 39 Norte 0 884.6 -1.3 41
2019-04-21 13:00:00 13.5 12 Norte 33 Nordeste 0 885.1 -1 42
2019-04-21 12:00:00 12.5 17 Norte 34 Norte 0 885.5 -0.8 39
2019-04-21 11:00:00 11.3 12 Norte 35 Norte 0 885.9 -0.4 45
2019-04-21 10:00:00 10.7 10 Norte 31 Norte 0 886.1 -0.3 51
2019-04-21 09:00:00 9.1 10 Norte 45 Norte 0 886.3 -0.7 61
2019-04-21 08:00:00 8.8 11 Norte 28 Nordeste 0 886.3 -1.2 53
2019-04-21 07:00:00 8.2 11 Norte 26 Noroeste 0 886.4 -1.5 58
2019-04-21 06:00:00 8 13 Norte 24 Norte 0 887 -1.9 62
2019-04-21 05:00:00 7.7 10 Norte 21 Norte 0 887.5 -1.9 61
2019-04-21 04:00:00 6.9 7 Norte 22 Oeste 0 887.9 -1.9 61
2019-04-21 03:00:00 7.2 8 Norte 21 Nordeste 0 888.9 -1.1 65
2019-04-21 02:00:00 8.5 8 Norte 23 Norte 0 889.4 -1 59
2019-04-21 01:00:00 8.7 12 Norte 26 Norte 0 889.8 -0.5 56
2019-04-21 00:00:00 8.2 12 Norte 26 Norte 0 890 0 56
2019-04-20 23:00:00 8.7 10 Norte 26 Norte 0 890.4 0.6 55
2019-04-20 22:00:00 8.6 10 Norte 19 Norte 0 890.3 0.6 56
2019-04-20 21:00:00 10.3 9 Norte 25 Oeste 0 890 0.2 45
2019-04-20 20:00:00 13.2 9 Norte 34 Noroeste 0 889.8 -0.3 35
2019-04-20 19:00:00 14.8 18 Noroeste 40 Norte 0 889.7 -1 33
2019-04-20 18:00:00 16.5 14 Norte 45 Nordeste 0 889.8 -1.3 33
2019-04-20 17:00:00 16.1 19 Norte 40 Norte 0 890.1 -1.4 34
2019-04-20 16:00:00 17.8 18 Norte 44 Nordeste 0 890.7 -1.4 32
2019-04-20 15:00:00 16.4 20 Norte 44 Norte 0 891.1 -1.3 36
2019-04-20 14:00:00 16.9 17 Norte 42 Norte 0 891.5 -1 35
2019-04-20 13:00:00 16.7 16 Noroeste 43 Noroeste 0 892.1 0 32
2019-04-20 12:00:00 15.2 15 Norte 39 Noroeste 0 892.4 -0.1 36
2019-04-20 11:00:00 14.1 14 Norte 39 Norte 0 892.5 0.3 46
2019-04-20 10:00:00 12.6 15 Noroeste 38 Noroeste 0 892.1 0.1 56
2019-04-20 09:00:00 11 13 Noroeste 32 Norte 0 892.5 0.2 65
2019-04-20 08:00:00 9.5 10 Noroeste 21 Noroeste 0 892.2 -0.7 66
2019-04-20 07:00:00 9 6 Noroeste 20 Norte 0 892 -1 64
2019-04-20 06:00:00 8.3 5 Noroeste 22 Norte 0 892.3 -1 64
2019-04-20 05:00:00 6.8 7 Oeste 19 Oeste 0 892.9 -0.6 74
2019-04-20 04:00:00 6.2 10 Oeste 19 Oeste 0 893 -0.8 76
2019-04-20 03:00:00 6.8 7 Sudoeste 18 Oeste 0 893.3 -0.5 76
2019-04-20 02:00:00 7.3 7 Sudoeste 18 Oeste 0 893.5 0 74
2019-04-20 01:00:00 7.9 12 Sudoeste 18 Sudoeste 0 893.8 0.9 73
2019-04-20 00:00:00 8.9 7 Sudoeste 19 Sur 0 893.8 1.6 68
2019-04-19 23:00:00 10.3 2 Sudoeste 20 Sur 0 893.5 1.8 58
2019-04-19 22:00:00 11.5 3 Oeste 17 Nordeste 0 892.9 1.5 48
2019-04-19 21:00:00 12.9 7 Este 24 Nordeste 0 892.2 1.1 42
2019-04-19 20:00:00 14.7 5 Este 25 Nordeste 0 891.7 0.6 42
2019-04-19 19:00:00 14.9 8 Este 26 Este 0 891.4 0.5 43
2019-04-19 18:00:00 13.3 8 Este 30 Nordeste 0 891.1 0.5 56
2019-04-19 17:00:00 13.5 8 Nordeste 28 Este 0 891.1 0.6 55
2019-04-19 16:00:00 15 18 Este 45 Este 0 890.9 0.6 54
2019-04-19 15:00:00 13.7 17 Este 40 Este 0 890.6 0.8 59
2019-04-19 14:00:00 10.1 10 Este 30 Este 0 890.5 1.1 78
2019-04-19 13:00:00 9.6 13 Este 34 Nordeste 0.2 890.3 1.7 81
2019-04-19 12:00:00 8.9 11 Este 24 Nordeste 0 889.8 1.7 83
2019-04-19 11:00:00 7.5 8 Sudeste 15 Este 0 889.4 2.2 92
2019-04-19 10:00:00 6.5 9 Este 27 Este 0 888.6 2.3 96
2019-04-19 09:00:00 6 11 Este 24 Nordeste 0.4 888.1 2.3 97
2019-04-19 08:00:00 6 10 Este 26 Este 0 887.2 1.7 96
2019-04-19 07:00:00 6.1 10 Este 24 Este 0.2 886.3 1 97
2019-04-19 06:00:00 6.1 12 Este 28 Este 1.6 885.8 0.2 97
2019-04-19 05:00:00 6.2 11 Este 40 Este 1.2 885.5 -0.1 96
2019-04-19 04:00:00 6.5 17 Este 48 Este 0.2 885.3 -0.3 93
2019-04-19 03:00:00 6.8 14 Nordeste 40 Nordeste 0.4 885.6 -0.3 93
2019-04-19 02:00:00 6.2 6 Noroeste 20 Oeste 0.8 885.6 -0.3 94
2019-04-19 01:00:00 6 5 Norte 17 Oeste 1.4 885.6 0.1 93
2019-04-19 00:00:00 6 7 Nordeste 17 Nordeste 1.8 885.9 0.9 95
2019-04-18 23:00:00 6 8 Nordeste 21 Nordeste 0.2 885.9 1.2 94
2019-04-18 22:00:00 6.3 5 Norte 26 Este 0.4 885.5 1 96
2019-04-18 21:00:00 6.5 8 Nordeste 26 Este 0.6 885 0.9 95
2019-04-18 20:00:00 6.8 5 Sudeste 19 Oeste 1.4 884.7 0.6 95
2019-04-18 19:00:00 6.8 9 Oeste 18 Oeste 1 884.5 -0.1 94
2019-04-18 18:00:00 7.1 10 Oeste 18 Oeste 0.6 884.1 -0.6 92
2019-04-18 17:00:00 7.9 6 Oeste 19 Oeste 0.2 884.1 -0.7 93
2019-04-18 16:00:00 6.8 7 Nordeste 15 Sur 1 884.6 -0.1 94
2019-04-18 15:00:00 7 7 Este 17 Este 2.2 884.7 0.1 96
2019-04-18 14:00:00 7 9 Sudeste 17 Sur 1.6 884.8 0.2 95
2019-04-18 13:00:00 7.5 13 Sur 24 Sur 0 884.7 0.7 90
2019-04-18 12:00:00 7.2 12 Sur 22 Sur 0.2 884.6 0.8 96
2019-04-18 11:00:00 6.5 11 Sur 18 Sur 0.4 884.6 0.9 97
2019-04-18 10:00:00 6.5 10 Sur 16 Sur 0 884 1.4 96
2019-04-18 09:00:00 5.9 6 Nordeste 16 Sur 0 883.8 1.3 96
2019-04-18 08:00:00 5.9 5 Sudeste 16 Sudoeste 0.2 883.7 1.4 93
2019-04-18 07:00:00 6.3 10 Sudoeste 23 Sur 0.8 882.6 0.2 95
2019-04-18 06:00:00 6.3 12 Sur 36 Sur 0.6 882.5 0.1 93
2019-04-18 05:00:00 6.5 9 Sudoeste 41 Sudoeste 0.6 882.3 0.3 90
2019-04-18 04:00:00 7.1 17 Sudoeste 45 Sur 0.6 882.4 0 89
2019-04-18 03:00:00 8 21 Sudoeste 46 Sur 1.4 882.4 0 88
2019-04-18 02:00:00 9.5 14 Sur 30 Sur 0 882 -0.5 92
2019-04-18 01:00:00 9.6 12 Sur 26 Sur 0 882.4 0.3 91
2019-04-18 00:00:00 9.7 6 Este 21 Sur 0 882.4 1.1 90
2019-04-17 23:00:00 10.3 13 Sudeste 52 Sur 0.2 882.5 1.8 85
2019-04-17 22:00:00 12.3 28 Sur 60 Sur 0 882.1 1.5 64
2019-04-17 21:00:00 12.9 23 Sudoeste 72 Sur 0 881.3 0.8 56
2019-04-17 20:00:00 15 22 Sudoeste 49 Sudeste 0 880.7 -0.4 42
2019-04-17 19:00:00 16 15 Sur 33 Sur 0 880.6 -0.6 47
2019-04-17 18:00:00 13.6 10 Sudeste 25 Sur 0 880.5 -1 56
2019-04-17 17:00:00 13.7 14 Sur 38 Sur 0 881.1 -0.6 52
2019-04-17 16:00:00 14 26 Sur 54 Sur 0 881.2 -0.9 47
2019-04-17 15:00:00 14.9 24 Sur 57 Sur 0 881.5 -0.7 51
2019-04-17 14:00:00 14.6 31 Sur 59 Sur 0 881.7 -0.7 50
2019-04-17 13:00:00 13 21 Sur 35 Sudeste 0 882.1 -0.3 64
2019-04-17 12:00:00 12.9 18 Sur 33 Sudoeste 0 882.2 -0.4 63
2019-04-17 11:00:00 10.7 19 Sur 41 Sur 0 882.4 -0.3 70
2019-04-17 10:00:00 8.9 23 Sur 44 Sur 0 882.4 -0.3 75
2019-04-17 09:00:00 7.9 14 Sur 23 Sur 0 882.6 -0.2 78
2019-04-17 08:00:00 6.2 8 Sudeste 23 Sur 0 882.7 -0.4 80
2019-04-17 07:00:00 6.7 14 Sur 22 Sur 0 882.7 -0.9 76
2019-04-17 06:00:00 6.6 13 Sur 23 Sur 0 882.8 -1.2 72
2019-04-17 05:00:00 7.4 16 Sur 25 Sur 0 883.1 -1.7 70
2019-04-17 04:00:00 6.3 12 Sudoeste 23 Sur 0 883.6 -1.4 71
2019-04-17 03:00:00 7.1 16 Sur 23 Sur 0 884 -1.3 69
2019-04-17 02:00:00 7.2 8 Oeste 21 Oeste 0 884.8 -0.8 61
2019-04-17 01:00:00 7.8 7 Sudoeste 19 Sur 0 885 -0.7 60
2019-04-17 00:00:00 8 5 Sudoeste 17 Sudoeste 0 885.3 -0.3 50
2019-04-16 23:00:00 8.8 3 Sudoeste 19 Oeste 0 885.6 -0.1 45
2019-04-16 22:00:00 10 3 Oeste 22 Sur 0 885.7 -0.2 38
2019-04-16 21:00:00 11.6 14 Sur 29 Sur 0 885.6 -0.4 35
2019-04-16 20:00:00 14.4 18 Sudoeste 32 Sur 0 885.7 -0.8 34
2019-04-16 19:00:00 15.1 21 Sur 33 Sur 0 885.9 -1.2 37
2019-04-16 18:00:00 16.5 15 Sudoeste 35 Sur 0 886 -1.5 31
2019-04-16 17:00:00 15.3 18 Sudoeste 31 Sur 0 886.5 -1 35
2019-04-16 16:00:00 15.8 19 Sur 38 Sudoeste 0 887.1 -0.8 39
2019-04-16 15:00:00 14.8 17 Sudoeste 37 Sur 0 887.5 -0.9 39
2019-04-16 14:00:00 14.6 20 Sur 36 Sur 0 887.5 -1 43
2019-04-16 13:00:00 13.1 16 Sur 34 Sur 0 887.9 -0.7 52
2019-04-16 12:00:00 11.7 14 Sur 30 Sur 0 888.4 -0.4 55
2019-04-16 11:00:00 7.4 12 Sur 23 Sur 0 888.5 0.1 76
2019-04-16 10:00:00 6.8 6 Sur 13 Sur 0 888.6 0.7 88
2019-04-16 09:00:00 5 3 Oeste 13 Oeste 0 888.8 1.1 99
2019-04-16 08:00:00 4.1 4 Sur 11 Oeste 0 888.4 0.8 99
2019-04-16 07:00:00 4.1 0 Calma 17 Oeste 0 887.9 0.2 98
2019-04-16 06:00:00 4.2 5 Oeste 17 Oeste 0 887.7 -0.1 96
2019-04-16 05:00:00 4.2 3 Nordeste 11 Oeste 0 887.6 0 95
2019-04-16 04:00:00 4.4 4 Nordeste 11 Sur 0 887.7 0.5 94
2019-04-16 03:00:00 5.5 0 Calma 13 Sur 0 887.8 1 92
2019-04-16 02:00:00 5.6 9 Sur 14 Sur 0 887.6 1.6 94
2019-04-16 01:00:00 5.6 12 Sudeste 18 Este 0 887.2 2.2 93
2019-04-16 00:00:00 6 7 Este 16 Sudeste 0 886.8 3 92
2019-04-15 23:00:00 6.7 9 Este 20 Nordeste 0 886 3.4 91
2019-04-15 22:00:00 7.2 7 Nordeste 21 Nordeste 0 885 3 77
2019-04-15 21:00:00 9.8 14 Sudoeste 29 Oeste 0 883.8 2.5 56
2019-04-15 20:00:00 12.8 16 Oeste 41 Sudoeste 0 882.6 1.4 47
2019-04-15 19:00:00 12.8 18 Sudoeste 46 Oeste 0 882 1.6 49
2019-04-15 18:00:00 15.3 24 Sudoeste 52 Sudoeste 0 881.3 0.6 48
2019-04-15 17:00:00 15.1 21 Sudoeste 48 Sudoeste 0 881.2 0.5 51
2019-04-15 16:00:00 15 26 Sudoeste 62 Sudoeste 1.2 880.4 -0.4 66
2019-04-15 15:00:00 12 33 Sudoeste 61 Oeste 1.4 880.7 -0.9 77
2019-04-15 14:00:00 14.2 28 Sudoeste 63 Sur 1.4 880.7 -1.1 72
2019-04-15 13:00:00 16.2 34 Sur 62 Sur 0 880.8 -1.6 59
2019-04-15 12:00:00 15.8 25 Sur 50 Sudoeste 0 881.6 -1.5 61
2019-04-15 11:00:00 13.8 27 Sur 41 Sur 0 881.8 -1.7 69
2019-04-15 10:00:00 12.3 14 Sudeste 28 Sur 0 882.4 -1.4 74
2019-04-15 09:00:00 11.7 17 Sur 30 Sur 0 883.1 -0.9 75
2019-04-15 08:00:00 11.5 3 Norte 32 Sur 0 883.5 -1.1 74
2019-04-15 07:00:00 12.1 13 Sudoeste 30 Sur 0 883.8 -1.1 72
2019-04-15 06:00:00 12.3 3 Sudoeste 22 Sudoeste 0 884 -1.5 65
2019-04-15 05:00:00 12.6 8 Sudoeste 28 Oeste 0 884.6 -1.5 63
2019-04-15 04:00:00 12.6 7 Sudoeste 30 Sudoeste 0 884.9 -1.8 61
2019-04-15 03:00:00 12.6 8 Sudoeste 23 Sudoeste 0 885.5 -1.2 63
2019-04-15 02:00:00 11.9 7 Sudoeste 28 Sur 0 886.1 -0.9 66
2019-04-15 01:00:00 10.7 4 Oeste 21 Sudoeste 0 886.7 -0.4 77
2019-04-15 00:00:00 11.5 0 Calma 30 Sudoeste 0 886.7 -0.1 73
2019-04-14 23:00:00 12.8 4 Nordeste 30 Sur 0 887 0.3 67
2019-04-14 22:00:00 14 10 Sur 32 Sur 0 887.1 0.4 62
2019-04-14 21:00:00 14.4 9 Sur 34 Sur 0 886.8 0.1 61
2019-04-14 20:00:00 15.1 11 Sur 31 Sur 0 886.7 -0.3 59
2019-04-14 19:00:00 16.4 11 Sur 36 Sur 0 886.7 -0.9 54
2019-04-14 18:00:00 18.6 13 Sur 39 Sur 0 886.7 -0.9 49
2019-04-14 17:00:00 18.9 13 Sur 28 Sur 0 887 -0.6 49
2019-04-14 16:00:00 18.4 13 Sur 26 Sudeste 0 887.6 -0.3 47
2019-04-14 15:00:00 19.3 13 Sudeste 27 Sur 0 887.6 -0.2 42
2019-04-14 14:00:00 18.5 11 Sudeste 23 Sudoeste 0 887.6 -0.2 44
2019-04-14 13:00:00 17.3 11 Sudeste 27 Sur 0 887.9 -0.1 45
2019-04-14 12:00:00 15.4 13 Sudeste 26 Sur 0 887.8 0.2 47
2019-04-14 11:00:00 14.3 9 Sudeste 21 Sur 0 887.8 0.3 45
2019-04-14 10:00:00 11.4 15 Sudoeste 19 Oeste 0 888 0.8 57
2019-04-14 09:00:00 7.7 17 Oeste 19 Oeste 0 887.6 0.4 68
2019-04-14 08:00:00 7.2 7 Noroeste 22 Oeste 0 887.5 -0.1 70
2019-04-14 07:00:00 7.1 14 Oeste 21 Oeste 0 887.2 -0.3 69
2019-04-14 06:00:00 8.1 3 Oeste 19 Oeste 0 887.2 -0.6 64
2019-04-14 05:00:00 8.3 10 Oeste 20 Oeste 0 887.6 -0.5 65
2019-04-14 04:00:00 8.4 5 Noroeste 20 Oeste 0 887.5 -0.8 63
2019-04-14 03:00:00 8.9 6 Oeste 18 Oeste 0 887.8 -0.8 60
2019-04-14 02:00:00 9.6 3 Oeste 18 Oeste 0 888.1 -0.5 58
2019-04-14 01:00:00 9.8 3 Norte 15 Sudoeste 0 888.3 -0.1 57
2019-04-14 00:00:00 10.7 4 Sudeste 17 Sudoeste 0 888.6 0.9 54
2019-04-13 23:00:00 11.3 2 Norte 13 Noroeste 0 888.6 1 51
2019-04-13 22:00:00 12.6 4 Oeste 28 Sudoeste 0 888.4 1.2 44
2019-04-13 21:00:00 14.1 12 Sudoeste 32 Sudoeste 0 887.7 0.5 38
2019-04-13 20:00:00 15.2 15 Sudoeste 32 Sudoeste 0 887.6 0.2 32
2019-04-13 19:00:00 18.1 17 Sudoeste 34 Sudoeste 0 887.2 -0.5 26
2019-04-13 18:00:00 18.4 20 Sudoeste 40 Sudoeste 0 887.2 -0.8 27
2019-04-13 17:00:00 19.4 16 Sudoeste 43 Sur 0 887.4 -0.9 27
2019-04-13 16:00:00 18.4 18 Sudoeste 45 Sudoeste 0 887.7 -1 28
2019-04-13 15:00:00 18.3 18 Sudoeste 37 Sur 0 888 -0.9 28
2019-04-13 14:00:00 17.7 21 Sudoeste 41 Sudoeste 0 888.3 -1.1 32
2019-04-13 13:00:00 16.9 18 Sudoeste 33 Sur 0 888.7 -0.6 34
2019-04-13 12:00:00 15.9 13 Sur 25 Sur 0 888.9 -0.2 30
2019-04-13 11:00:00 13.5 15 Sur 22 Sur 0 889.4 0.4 34
2019-04-13 10:00:00 8.8 15 Oeste 21 Oeste 0 889.3 0.6 44
2019-04-13 09:00:00 5.4 7 Oeste 17 Oeste 0 889.1 0.5 53
2019-04-13 08:00:00 3.3 9 Noroeste 18 Oeste 0 889 0.5 62
2019-04-13 07:00:00 3.6 8 Oeste 17 Oeste 0 888.7 -0.2 61
2019-04-13 06:00:00 3.6 9 Oeste 19 Oeste 0 888.6 -0.8 62
2019-04-13 05:00:00 2.9 8 Oeste 17 Oeste 0 888.5 -1.3 67
2019-04-13 04:00:00 3 6 Oeste 18 Oeste 0 888.9 -0.9 68
2019-04-13 03:00:00 3.4 8 Oeste 18 Oeste 0 889.4 -0.3 67
2019-04-13 02:00:00 4.2 11 Noroeste 19 Oeste 0 889.8 0.1 66
2019-04-13 01:00:00 4 8 Noroeste 18 Oeste 0 889.8 0.6 71
2019-04-13 00:00:00 4.8 12 Noroeste 19 Oeste 0 889.7 1.1 67
2019-04-12 23:00:00 6.3 15 Oeste 18 Oeste 0 889.7 1.4 57
2019-04-12 22:00:00 6.7 5 Este 16 Sur 0 889.2 1 66
2019-04-12 21:00:00 8.7 8 Sudeste 17 Sur 0 888.6 0.5 57
2019-04-12 20:00:00 12.3 10 Este 22 Sudeste 0 888.3 0.1 42
2019-04-12 19:00:00 13.7 11 Este 25 Sudeste 0 888.2 -0.6 27
2019-04-12 18:00:00 14.6 10 Este 23 Sur 0 888.1 -1.1 28
2019-04-12 17:00:00 14.6 12 Sudeste 25 Sudeste 0 888.2 -1.3 31
2019-04-12 16:00:00 14.9 10 Este 25 Sur 0 888.8 -0.7 30
2019-04-12 15:00:00 14 13 Sudeste 26 Sudeste 0 889.2 -0.6 29
2019-04-12 14:00:00 12.8 9 Nordeste 23 Sur 0 889.5 -0.2 23
2019-04-12 13:00:00 12.3 10 Sudeste 21 Sur 0 889.5 -0.3 35
2019-04-12 12:00:00 10.2 9 Sur 18 Sur 0 889.8 0 42
2019-04-12 11:00:00 8.1 6 Sudeste 14 Sur 0 889.7 0.1 49
2019-04-12 10:00:00 4.3 2 Sudoeste 16 Oeste 0 889.8 0.5 73
2019-04-12 09:00:00 0.4 4 Oeste 10 Oeste 0 889.8 0.5 80
2019-04-12 08:00:00 -1.6 7 Noroeste 18 Oeste 0 889.6 0.3 92
2019-04-12 07:00:00 -1 4 Oeste 10 Oeste 0 889.3 -0.2 87
2019-04-12 06:00:00 0.3 7 Noroeste 14 Oeste 0 889.3 -0.6 84
2019-04-12 05:00:00 0.4 7 Noroeste 16 Oeste 0 889.3 -1 85
2019-04-12 04:00:00 0.6 7 Noroeste 19 Oeste 0 889.5 -0.6 88
2019-04-12 03:00:00 1 5 Noroeste 19 Norte 0 889.9 -0.2 85
2019-04-12 02:00:00 2.1 6 Noroeste 23 Norte 0 890.3 0.1 85
2019-04-12 01:00:00 1.6 5 Noroeste 17 Oeste 0 890.1 0.1 87
2019-04-12 00:00:00 2.5 8 Noroeste 21 Norte 0 890.1 0.6 84
2019-04-11 23:00:00 2.4 9 Noroeste 22 Norte 0 890.2 1.2 87
2019-04-11 22:00:00 3.4 12 Norte 22 Norte 0 890 1.2 82
2019-04-11 21:00:00 5.1 9 Norte 26 Norte 0 889.5 0.8 73
2019-04-11 20:00:00 6.6 12 Norte 29 Norte 0 889 0.5 68
2019-04-11 19:00:00 7.5 10 Norte 24 Norte 0 888.8 0 62
2019-04-11 18:00:00 8.6 9 Norte 36 Norte 0 888.7 -0.2 56
2019-04-11 17:00:00 9.6 12 Norte 27 Nordeste 0 888.5 -0.5 49
2019-04-11 16:00:00 9.8 11 Nordeste 30 Nordeste 0 888.8 -0.2 50
2019-04-11 15:00:00 10.1 13 Nordeste 31 Nordeste 0 888.9 -0.1 49
2019-04-11 14:00:00 9.2 12 Norte 32 Nordeste 0 889 0.1 46
2019-04-11 13:00:00 10.8 11 Norte 23 Nordeste 0 889 0.3 44
2019-04-11 12:00:00 9.3 9 Nordeste 22 Noroeste 0 889 0.3 46
2019-04-11 11:00:00 7.6 6 Este 14 Sudeste 0 888.9 0.6 52
2019-04-11 10:00:00 5.8 2 Noroeste 14 Noroeste 0 888.7 0.6 62
2019-04-11 09:00:00 2.5 2 Sudoeste 17 Sudoeste 0 888.7 0.4 76
2019-04-11 08:00:00 0.6 3 Noroeste 15 Oeste 0 888.3 -0.1 78
2019-04-11 07:00:00 -0.2 5 Noroeste 18 Oeste 0 888.1 0 85
2019-04-11 06:00:00 -0.7 5 Oeste 18 Oeste 0 888.3 -0.1 93
2019-04-11 05:00:00 0.1 3 Noroeste 11 Sur 0 888.4 0 89
2019-04-11 04:00:00 0.8 5 Sudeste 11 Oeste 0 888.1 -0.3 88
2019-04-11 03:00:00 1.5 3 Sur 15 Noroeste 0 888.4 -0.1 83
2019-04-11 02:00:00 2.5 10 Norte 18 Norte 0 888.4 0.1 81
2019-04-11 01:00:00 2.8 10 Noroeste 22 Noroeste 0 888.4 0.6 77
2019-04-11 00:00:00 3.2 10 Noroeste 26 Noroeste 0 888.5 1.4 75
2019-04-10 23:00:00 3 10 Noroeste 23 Noroeste 0 888.3 1.8 77
2019-04-10 22:00:00 2.8 9 Noroeste 26 Noroeste 0 887.8 1.8 79
2019-04-10 21:00:00 3.3 9 Noroeste 29 Norte 0 887.1 1.7 76
2019-04-10 20:00:00 4.6 14 Norte 31 Norte 0 886.5 1.6 72
2019-04-10 19:00:00 6.6 13 Norte 31 Nordeste 0 886 1.1 68
2019-04-10 18:00:00 7.6 17 Norte 33 Norte 0 885.4 0.8 67
2019-04-10 17:00:00 8.8 12 Norte 29 Noroeste 0.2 884.9 0.4 75
2019-04-10 16:00:00 6.5 11 Sudeste 21 Nordeste 0.6 884.9 0.4 84
2019-04-10 15:00:00 8.5 6 Noroeste 23 Sudoeste 0 884.6 0.2 60
2019-04-10 14:00:00 6.4 4 Oeste 18 Sur 0.2 884.5 0.6 75
2019-04-10 13:00:00 5.2 3 Oeste 18 Oeste 0.2 884.5 1.2 85
2019-04-10 12:00:00 1.3 3 Oeste 16 Oeste 1.6 884.4 1.4 97
2019-04-10 11:00:00 0.9 3 Noroeste 16 Sur 0.8 883.9 1.5 96
2019-04-10 10:00:00 2.1 4 Oeste 17 Oeste 0 883.3 1.3 100
2019-04-10 09:00:00 0.7 4 Noroeste 17 Oeste 0.2 883 1 100
2019-04-10 08:00:00 -0.2 3 Este 11 Oeste 0 882.4 0.5 100
2019-04-10 07:00:00 -0.1 4 Oeste 17 Oeste 0 882 0.2 100
2019-04-10 06:00:00 0.1 4 Noroeste 13 Oeste 0 882 0.1 98
2019-04-10 05:00:00 0 6 Oeste 20 Oeste 0 881.9 -0.2 97
2019-04-10 04:00:00 0.2 2 Sudoeste 12 Sudoeste 0 881.8 0.2 94
2019-04-10 03:00:00 1.5 2 Norte 15 Oeste 0.6 881.9 0.3 95
2019-04-10 02:00:00 2.4 6 Noroeste 14 Oeste 0 882.1 0.5 95
2019-04-10 01:00:00 2.5 3 Oeste 8 Noroeste 0 881.6 0.4 93
2019-04-10 00:00:00 2 0 Calma 11 Oeste 0 881.6 0.8 95
2019-04-09 23:00:00 1.5 5 Nordeste 10 Oeste 0 881.6 1.2 93
2019-04-09 22:00:00 2.4 6 Nordeste 17 Este 0 881.2 1 91
2019-04-09 21:00:00 4 9 Este 22 Este 0 880.8 1 85
2019-04-09 20:00:00 6.9 7 Este 19 Este 0 880.4 1 68
2019-04-09 19:00:00 7.2 6 Sur 36 Oeste 0 880.2 0.9 55
2019-04-09 18:00:00 8.1 18 Oeste 43 Oeste 0 879.8 0.2 49
2019-04-09 17:00:00 11 16 Sudoeste 36 Sudoeste 0 879.4 -0.4 50
2019-04-09 16:00:00 9.9 15 Sudoeste 33 Sudoeste 0 879.3 -0.7 54
2019-04-09 15:00:00 8.4 7 Sudoeste 29 Sudoeste 0 879.6 -0.6 60
2019-04-09 14:00:00 7.5 11 Sudoeste 28 Sudoeste 0 879.8 -0.5 67
2019-04-09 13:00:00 6.3 12 Sudoeste 27 Sudoeste 0 880 -0.4 71
2019-04-09 12:00:00 5.7 6 Sur 22 Sudoeste 0 880.2 -0.3 78
2019-04-09 11:00:00 5.5 6 Sudoeste 22 Sudoeste 0 880.3 0 84
2019-04-09 10:00:00 3.6 3 Sudoeste 18 Sudoeste 0.4 880.4 0.1 94
2019-04-09 09:00:00 2.5 6 Sur 22 Sur 0.2 880.5 0 94
2019-04-09 08:00:00 2.3 7 Sudeste 24 Sudoeste 0.4 880.3 -0.4 94
2019-04-09 07:00:00 2.8 7 Sudoeste 28 Sudoeste 0 880.3 -0.4 88
2019-04-09 06:00:00 3 13 Sudoeste 29 Sur 0 880.5 -0.3 85
2019-04-09 05:00:00 3.5 13 Oeste 33 Sudoeste 0 880.7 -0.3 76
2019-04-09 04:00:00 3.4 9 Oeste 37 Sudoeste 0 880.7 -0.4 73
2019-04-09 03:00:00 3.5 11 Oeste 30 Sudoeste 0 880.8 -0.4 67
2019-04-09 02:00:00 2.6 9 Oeste 28 Sudoeste 0 881 -0.2 73
2019-04-09 01:00:00 2.6 4 Sudoeste 16 Oeste 0 881.1 -0.1 75
2019-04-09 00:00:00 2.9 5 Sudoeste 21 Oeste 0 881.2 0.3 73
2019-04-08 23:00:00 4.9 15 Sudoeste 31 Sudoeste 0 881.2 0.3 64
2019-04-08 22:00:00 4.5 6 Sudeste 18 Oeste 0 881.2 0.6 69
2019-04-08 21:00:00 5.3 10 Noroeste 21 Noroeste 0 880.9 0.1 69
2019-04-08 20:00:00 5.3 9 Noroeste 41 Oeste 0 880.9 0 65
2019-04-08 19:00:00 10.2 17 Sudoeste 40 Sudoeste 0 880.6 -0.6 45
2019-04-08 18:00:00 10 15 Sudoeste 46 Sur 0 880.8 -0.7 46
2019-04-08 17:00:00 12.3 21 Sur 42 Sur 0 880.9 -0.6 41
2019-04-08 16:00:00 10.5 17 Sudoeste 41 Sudoeste 0 881.2 0 36
2019-04-08 15:00:00 9.8 14 Sudoeste 39 Sudoeste 0 881.5 0 43
2019-04-08 14:00:00 10.7 20 Sudoeste 37 Sudoeste 0 881.5 0.3 40
2019-04-08 13:00:00 11.1 16 Sudoeste 37 Sudoeste 0 881.2 0.3 57
2019-04-08 12:00:00 7.7 9 Sudeste 15 Oeste 0 881.5 0.9 87
2019-04-08 11:00:00 5 6 Sudeste 14 Sur 0 881.2 1 99
2019-04-08 10:00:00 3.7 3 Nordeste 12 Noroeste 0 880.9 1.1 100
2019-04-08 09:00:00 2.7 4 Nordeste 11 Oeste 0 880.6 0.9 99
2019-04-08 08:00:00 2.1 4 Noroeste 11 Sur 0 880.2 0.6 99
2019-04-08 07:00:00 2.1 2 Norte 11 Noroeste 0.2 879.8 -0.1 98
2019-04-08 06:00:00 2.4 3 Norte 10 Oeste 0.2 879.7 -0.3 97
2019-04-08 05:00:00 2.1 3 Oeste 10 Oeste 0.4 879.6 -0.9 97
2019-04-08 04:00:00 2 3 Nordeste 10 Sudoeste 0.4 879.9 -0.8 96
2019-04-08 03:00:00 2 0 Calma 10 Oeste 0.2 880 -1 96
2019-04-08 02:00:00 1.8 3 Este 16 Sudoeste 0.4 880.5 -1 96
2019-04-08 01:00:00 1.7 4 Sudoeste 11 Sudoeste 0.2 880.7 -0.2 96
2019-04-08 00:00:00 1.7 4 Sudoeste 24 Sur 0.6 881 0 95
2019-04-07 23:00:00 2 2 Sudeste 26 Sudoeste 0.8 881.5 1.1 93
2019-04-07 22:00:00 2.4 5 Sudeste 26 Sudoeste 0.2 880.9 1.2 93
2019-04-07 21:00:00 2.6 13 Sudoeste 36 Sudoeste 0.6 881 1.5 90
2019-04-07 20:00:00 4.3 17 Sudoeste 38 Sur 0.2 880.4 0.9 84
2019-04-07 19:00:00 7.3 15 Sudoeste 41 Sudoeste 0 879.7 0.4 53
2019-04-07 18:00:00 8.4 19 Sudoeste 46 Sudoeste 0 879.5 0 40
2019-04-07 17:00:00 11.4 19 Sudoeste 45 Sur 0 879.5 0.2 31
2019-04-07 16:00:00 11 23 Sur 41 Sur 0 879.3 0.1 39
2019-04-07 15:00:00 10.4 17 Sudoeste 39 Sur 0 879.5 0.5 45
2019-04-07 14:00:00 10.3 21 Sudoeste 39 Sur 0 879.3 0.7 42
2019-04-07 13:00:00 8.3 13 Sudoeste 29 Sudoeste 0 879.2 1.1 54
2019-04-07 12:00:00 7.9 11 Sudeste 21 Sudeste 0 879 1.5 57
2019-04-07 11:00:00 4.7 7 Este 13 Sudeste 0 878.6 2.1 73
2019-04-07 10:00:00 2.1 6 Este 18 Sur 0 878.1 2.4 83
2019-04-07 09:00:00 -1.4 5 Nordeste 14 Sudoeste 0 877.5 2.8 96
2019-04-07 08:00:00 -2.7 7 Sudeste 18 Sur 0 876.5 2.1 95
2019-04-07 07:00:00 -2.1 5 Nordeste 10 Este 0 875.7 1.7 92
2019-04-07 06:00:00 -1.3 6 Sudeste 17 Sur 0 874.7 1 90
2019-04-07 05:00:00 0 3 Noroeste 17 Sudoeste 0 874.4 1 82
2019-04-07 04:00:00 0.5 5 Noroeste 23 Sudoeste 0 874 0.6 78
2019-04-07 03:00:00 0 5 Nordeste 17 Oeste 0 873.7 0.8 95
2019-04-07 02:00:00 -0.6 5 Norte 18 Oeste 0 873.4 0.7 97
2019-04-07 01:00:00 -0.8 4 Este 18 Sudoeste 0 873.4 1.2 96
2019-04-07 00:00:00 -0.5 3 Nordeste 17 Sudoeste 0 872.9 1.3 96
2019-04-06 23:00:00 -0.5 3 Norte 10 Noroeste 0 872.7 1.9 95
2019-04-06 22:00:00 0.4 4 Sur 19 Sur 0 872.2 2.3 92
2019-04-06 21:00:00 1.8 5 Norte 11 Norte 0 871.6 2.5 85
2019-04-06 20:00:00 3.4 3 Norte 21 Oeste 0 870.8 1.7 85
2019-04-06 19:00:00 1.8 14 Oeste 35 Oeste 0.2 869.9 1.1 87
2019-04-06 18:00:00 5.6 13 Sudoeste 27 Oeste 0 869.1 0.1 63
2019-04-06 17:00:00 4.8 11 Oeste 33 Oeste 0 869.1 0.1 70
2019-04-06 16:00:00 4.8 13 Oeste 32 Sudoeste 0 868.8 -0.4 64
2019-04-06 15:00:00 3.6 12 Sudoeste 30 Sudoeste 0.2 869 -0.5 80
2019-04-06 14:00:00 4.4 10 Sudoeste 29 Sur 0.6 869 0 75
2019-04-06 13:00:00 3.8 9 Sudoeste 30 Sudoeste 0 869.2 0.1 73
2019-04-06 12:00:00 1.7 14 Sudoeste 37 Sudoeste 0 869.5 0.5 81
2019-04-06 11:00:00 1.5 6 Oeste 22 Sudoeste 0.2 869 -0.1 89
2019-04-06 10:00:00 0.3 9 Sudoeste 26 Sur 0.2 869.1 0 93
2019-04-06 09:00:00 -0.3 5 Sudeste 23 Sur 0 869 -0.2 94
2019-04-06 08:00:00 -0.7 12 Sudoeste 27 Oeste 0 869.1 -0.2 95
2019-04-06 07:00:00 -1.7 12 Sudoeste 23 Sur 0 869.1 -0.4 96
2019-04-06 06:00:00 -2.6 5 Noroeste 18 Oeste 0 869.2 -0.4 97
2019-04-06 05:00:00 -2.8 6 Nordeste 17 Sur 0 869.3 -0.5 97
2019-04-06 04:00:00 -3 4 Noroeste 16 Sudoeste 0 869.5 -0.2 96
2019-04-06 03:00:00 -2.7 7 Nordeste 19 Sudoeste 0 869.6 -0.3 93
2019-04-06 02:00:00 -1.8 9 Sur 17 Sudoeste 0 869.8 0.2 90
2019-04-06 01:00:00 -0.9 4 Noroeste 15 Sudoeste 0 869.7 0.5 81
2019-04-06 00:00:00 0.6 6 Oeste 11 Oeste 0 869.9 1.2 75
2019-04-05 23:00:00 0.8 3 Sudoeste 25 Sudoeste 0 869.6 1.4 69
2019-04-05 22:00:00 1.4 5 Nordeste 16 Oeste 0 869.2 1.2 66
2019-04-05 21:00:00 2.9 6 Sudoeste 24 Sudoeste 0 868.7 1 61
2019-04-05 20:00:00 6.3 11 Sudoeste 31 Sur 0 868.2 0.8 48
2019-04-05 19:00:00 5.6 12 Sudoeste 31 Sudoeste 0 868 0.1 52
2019-04-05 18:00:00 4.7 18 Sudoeste 45 Sudoeste 0 867.7 -0.5 51
2019-04-05 17:00:00 7.9 16 Sudoeste 33 Sudoeste 0 867.4 -0.9 49
2019-04-05 16:00:00 7 12 Sudoeste 30 Sur 0.2 867.9 -0.2 49
2019-04-05 15:00:00 3.4 12 Sudoeste 31 Sur 0 868.2 0 75
2019-04-05 14:00:00 4.8 15 Sudoeste 31 Sur 0 868.3 0.6 64
2019-04-05 13:00:00 5.2 12 Sudoeste 33 Sur 0 868.1 0.9 66
2019-04-05 12:00:00 4.8 15 Sudoeste 34 Sur 0 868.2 1.3 69
2019-04-05 11:00:00 3.4 15 Sudoeste 27 Sur 0.2 867.7 1 83
2019-04-05 10:00:00 2 4 Oeste 23 Sur 0.6 867.2 0.5 91
2019-04-05 09:00:00 1.5 8 Sudoeste 28 Sudoeste 0.8 866.9 0.2 93
2019-04-05 08:00:00 1 14 Sudoeste 30 Sur 1 866.7 -0.3 96
2019-04-05 07:00:00 0.8 15 Sudoeste 32 Sudoeste 0.6 866.7 -0.8 96
2019-04-05 06:00:00 0.3 19 Sur 39 Sudoeste 0.2 866.7 -1.2 97
2019-04-05 05:00:00 0.3 10 Sur 28 Sur 0.2 867 -1.5 97
2019-04-05 04:00:00 0.3 13 Sur 39 Sur 0.2 867.5 -1.5 96
2019-04-05 03:00:00 0.3 14 Sur 40 Sur 0.6 867.9 -1.7 95
2019-04-05 02:00:00 0.2 10 Sur 28 Sur 0.6 868.5 -1.5 96
2019-04-05 01:00:00 0.4 8 Sudeste 24 Sur 0.6 869 -1.2 94
2019-04-05 00:00:00 0.4 7 Sudeste 23 Sur 0.2 869.6 -0.8 94
2019-04-04 23:00:00 0.5 7 Sudeste 25 Sur 0.4 870 -0.5 93
2019-04-04 22:00:00 0.8 12 Sudoeste 26 Sur 0.2 870.2 -0.3 91
2019-04-04 21:00:00 1.3 12 Sudoeste 31 Sudoeste 0 870.4 -0.1 85
2019-04-04 20:00:00 3.2 13 Sudoeste 39 Sudoeste 0 870.5 -0.2 71
2019-04-04 19:00:00 5.5 16 Sudoeste 55 Sur 0 870.5 -0.8 47
2019-04-04 18:00:00 6.1 21 Sudoeste 50 Sudoeste 0 870.5 -1.3 44
2019-04-04 17:00:00 8.7 19 Sudoeste 43 Sudoeste 0 870.7 -1.7 34
2019-04-04 16:00:00 7.3 18 Sudoeste 43 Sudoeste 0 871.3 -1.6 37
2019-04-04 15:00:00 7.9 16 Sudoeste 41 Sudoeste 0 871.8 -1.3 37
2019-04-04 14:00:00 6.6 21 Sudoeste 44 Sudoeste 0 872.4 -1 42
2019-04-04 13:00:00 7 18 Sudoeste 36 Sudoeste 0 872.9 -0.9 41
2019-04-04 12:00:00 5.5 8 Oeste 27 Sudoeste 0 873.1 -0.3 44
2019-04-04 11:00:00 2.4 7 Sudeste 19 Sur 0 873.4 0.2 60
2019-04-04 10:00:00 -2.3 5 Noroeste 16 Oeste 0 873.8 0.7 86
2019-04-04 09:00:00 -5.4 5 Noroeste 14 Oeste 0 873.4 0.4 95
2019-04-04 08:00:00 -7.1 4 Norte 11 Sur 0 873.2 -0.2 94
2019-04-04 07:00:00 -6.3 6 Sur 19 Nordeste 0 873.1 -0.7 94
2019-04-04 06:00:00 -5.5 4 Norte 14 Oeste 0 873 -1.5 94
2019-04-04 05:00:00 -5.4 3 Noroeste 17 Nordeste 0 873.4 -1.7 94
2019-04-04 04:00:00 -5.3 4 Noroeste 17 Nordeste 0 873.8 -1.7 92
2019-04-04 03:00:00 -4.2 6 Sudeste 20 Sur 0 874.5 -1.3 87
2019-04-04 02:00:00 -4 4 Nordeste 15 Oeste 0 875.1 -1.1 88
2019-04-04 01:00:00 -3 4 Oeste 17 Oeste 0 875.5 -0.5 82
2019-04-04 00:00:00 -1.9 9 Noroeste 24 Oeste 0 875.8 -0.3 85
2019-04-03 23:00:00 -2.3 3 Nordeste 31 Noroeste 0 876.2 0.2 85
2019-04-03 22:00:00 -0.7 16 Noroeste 29 Noroeste 0 876 0.2 63
2019-04-03 21:00:00 -1.3 9 Noroeste 27 Noroeste 0 876.1 0.3 79
2019-04-03 20:00:00 0.9 12 Noroeste 34 Noroeste 0 876 0.2 55
2019-04-03 19:00:00 3.5 13 Oeste 41 Oeste 0 875.8 -0.2 49
2019-04-03 18:00:00 5.6 19 Oeste 46 Oeste 0 875.8 -1.2 37
2019-04-03 17:00:00 6.4 17 Oeste 53 Oeste 0 875.8 -1 34
2019-04-03 16:00:00 6.5 15 Oeste 38 Noroeste 0 876 -1.1 33
2019-04-03 15:00:00 2.6 19 Oeste 46 Oeste 0 877 -0.6 67
2019-04-03 14:00:00 6.3 18 Oeste 39 Oeste 0 876.8 -1.1 45
2019-04-03 13:00:00 6.1 15 Oeste 46 Oeste 0 877.1 -1 41
2019-04-03 12:00:00 5.2 20 Oeste 51 Oeste 0 877.6 -0.9 44
2019-04-03 11:00:00 5.7 6 Sudeste 19 Sur 0 877.9 -0.6 63
2019-04-03 10:00:00 1.5 2 Nordeste 17 Sudoeste 0 878.1 -0.7 77
2019-04-03 09:00:00 -0.5 4 Oeste 15 Sudoeste 0 878.5 -0.8 89
2019-04-03 08:00:00 -0.9 3 Noroeste 16 Oeste 0 878.5 -1.5 85
2019-04-03 07:00:00 -0.9 2 Este 18 Oeste 0 878.8 -1.9 89
2019-04-03 06:00:00 -0.4 4 Oeste 19 Oeste 0 879.3 -2.1 97
2019-04-03 05:00:00 0.2 4 Noroeste 17 Sur 0 880 -2.2 97
2019-04-03 04:00:00 1.1 4 Noroeste 10 Noroeste 0 880.7 -1.9 96
2019-04-03 03:00:00 1 5 Norte 11 Noroeste 0 881.4 -1.6 94
2019-04-03 02:00:00 2.6 4 Sudeste 12 Sur 0 882.2 -1 93
2019-04-03 01:00:00 3.2 6 Norte 15 Oeste 0 882.6 -0.7 87
2019-04-03 00:00:00 3.6 2 Oeste 15 Oeste 0 883 0 91
2019-04-02 23:00:00 3.6 6 Oeste 19 Norte 0 883.2 0 92
2019-04-02 22:00:00 4 10 Norte 22 Norte 0 883.3 0.2 90
2019-04-02 21:00:00 4.6 13 Norte 30 Norte 0 883 -0.5 87
2019-04-02 20:00:00 6.2 11 Norte 23 Norte 0 883.2 -0.7 79
2019-04-02 19:00:00 8.1 9 Nordeste 19 Oeste 0.2 883.1 -1.1 75
2019-04-02 18:00:00 9.4 6 Nordeste 17 Sur 0 883.5 -1.2 69
2019-04-02 17:00:00 9.3 9 Sudeste 21 Este 0.2 883.9 -1.3 67
2019-04-02 16:00:00 9.8 12 Sudeste 20 Sudeste 0.2 884.2 -1.5 64
2019-04-02 15:00:00 9.7 12 Sudeste 31 Sur 0.2 884.7 -1.1 66
2019-04-02 14:00:00 13 17 Sur 32 Sur 0 885.2 -0.6 46
2019-04-02 13:00:00 11.8 11 Este 25 Sudeste 0 885.7 0.1 50
2019-04-02 12:00:00 11.7 12 Este 22 Sudeste 0 885.8 0.2 42
2019-04-02 11:00:00 10.4 7 Este 20 Oeste 0 885.8 0.3 39
2019-04-02 10:00:00 7 9 Oeste 18 Oeste 0 885.6 0.2 51
2019-04-02 09:00:00 4.1 7 Noroeste 18 Oeste 0 885.6 0.2 61
2019-04-02 08:00:00 3.5 10 Noroeste 20 Oeste 0 885.5 0.1 61
2019-04-02 07:00:00 2.7 8 Noroeste 19 Oeste 0 885.4 -0.2 66
2019-04-02 06:00:00 3.6 11 Noroeste 20 Oeste 0 885.4 -0.5 60
2019-04-02 05:00:00 3.7 8 Oeste 17 Oeste 0 885.4 -0.6 67
2019-04-02 04:00:00 4.9 9 Noroeste 20 Oeste 0 885.6 -0.7 64
2019-04-02 03:00:00 5.4 10 Noroeste 19 Oeste 0 885.9 -0.2 68
2019-04-02 02:00:00 5.2 10 Oeste 18 Oeste 0 886 0.1 73
2019-04-02 01:00:00 5.8 8 Noroeste 19 Oeste 0 886.3 0.8 72
2019-04-02 00:00:00 5.8 7 Norte 17 Oeste 0 886.1 1.4 70
2019-04-01 23:00:00 6.6 9 Norte 17 Oeste 0 885.9 1.9 66
2019-04-01 22:00:00 6.8 7 Norte 20 Norte 0 885.5 1.9 68
2019-04-01 21:00:00 7.8 8 Norte 19 Oeste 0 884.7 1.3 65
2019-04-01 20:00:00 9.5 7 Nordeste 22 Nordeste 0 884 0.5 57
2019-04-01 19:00:00 11.9 7 Norte 19 Noroeste 0 883.6 -0.1 45
2019-04-01 18:00:00 14.2 10 Sudeste 24 Sur 0 883.4 -0.6 38
2019-04-01 17:00:00 12.8 6 Este 22 Sur 0 883.5 -0.6 40
2019-04-01 16:00:00 15.4 15 Sur 28 Sur 0 883.7 -0.4 40
2019-04-01 15:00:00 12.1 6 Nordeste 20 Nordeste 0 884 -0.3 37
2019-04-01 14:00:00 12.6 9 Nordeste 23 Nordeste 0 884.1 -0.3 36
2019-04-01 13:00:00 13.1 12 Norte 28 Nordeste 0 884.1 -0.1 35
2019-04-01 12:00:00 12.4 10 Nordeste 26 Nordeste 0 884.3 0.3 38
2019-04-01 11:00:00 8.6 6 Oeste 17 Oeste 0 884.4 0.5 50
2019-04-01 10:00:00 3.4 6 Noroeste 18 Oeste 0 884.2 0.4 74
2019-04-01 09:00:00 1.5 8 Noroeste 18 Oeste 0 884 -0.1 82
2019-04-01 08:00:00 0.5 8 Noroeste 13 Noroeste 0 883.9 -0.5 83
2019-04-01 07:00:00 1.4 7 Noroeste 12 Oeste 0 883.8 -0.9 81
2019-04-01 06:00:00 1.8 7 Noroeste 16 Oeste 0 884.1 -0.6 78
2019-04-01 05:00:00 2 7 Noroeste 18 Oeste 0 884.4 0 72
2019-04-01 04:00:00 1.9 5 Oeste 15 Oeste 0 884.7 0 69
2019-04-01 03:00:00 2.6 4 Sudoeste 18 Oeste 0 884.7 0 64
2019-04-01 02:00:00 3.9 9 Oeste 19 Oeste 0 884.4 -0.3 59
2019-04-01 01:00:00 5.1 13 Oeste 19 Oeste 0 884.7 0.3 53
2019-04-01 00:00:00 6 9 Noroeste 21 Oeste 0 884.7 0.9 52
2019-03-31 23:00:00 6.5 10 Noroeste 20 Oeste 0 884.7 1.4 55
2019-03-31 22:00:00 7.3 8 Oeste 19 Oeste 0 884.4 1 56
2019-03-31 21:00:00 8.9 6 Norte 19 Nordeste 0 883.8 0.6 51
2019-03-31 20:00:00 12.9 8 Nordeste 22 Nordeste 0 883.3 -0.1 34
2019-03-31 19:00:00 12.7 6 Nordeste 33 Nordeste 0 883.4 -0.5 31
2019-03-31 18:00:00 15.4 13 Sudeste 30 Este 0 883.2 -1.3 25
2019-03-31 17:00:00 14.4 15 Sudeste 31 Este 0 883.4 -1.6 28
2019-03-31 16:00:00 13.9 8 Este 36 Nordeste 0 883.9 -1.7 28
2019-03-31 15:00:00 16.3 14 Este 33 Este 0 884.5 -1.2 31
2019-03-31 14:00:00 15 16 Sudeste 33 Sur 0 885 -0.7 30
2019-03-31 13:00:00 14.6 13 Este 31 Este 0 885.6 0 32
2019-03-31 12:00:00 13.2 12 Sudeste 22 Sur 0 885.7 -0.1 33
2019-03-31 11:00:00 11.3 6 Sudoeste 17 Sudoeste 0 885.7 0 42
2019-03-31 10:00:00 7.7 5 Norte 17 Oeste 0 885.6 -0.3 52
2019-03-31 09:00:00 4 10 Noroeste 21 Oeste 0 885.8 -0.2 60
2019-03-31 08:00:00 2.9 12 Noroeste 20 Noroeste 0 885.7 -1 65
2019-03-31 07:00:00 3.6 10 Oeste 18 Oeste 0 885.9 -1.2 63
2019-03-31 06:00:00 3.7 9 Noroeste 20 Oeste 0 886 -1.5 64
2019-03-31 05:00:00 4.6 13 Oeste 20 Oeste 0 886.7 -1.1 62
2019-03-31 03:00:00 5.1 8 Noroeste 22 Oeste 0 887.5 -0.9 68
2019-03-31 01:00:00 6.4 14 Noroeste 22 Oeste 0 887.8 -0.5 65
2019-03-31 00:00:00 7.2 9 Noroeste 18 Oeste 0 888.2 0.1 62
2019-03-30 23:00:00 7.5 6 Oeste 18 Oeste 0 888.4 0.8 60
2019-03-30 22:00:00 8.4 5 Norte 18 Oeste 0 888.3 1 57
2019-03-30 21:00:00 9.3 5 Noroeste 19 Oeste 0 888.1 1.1 53
2019-03-30 20:00:00 9.8 3 Norte 17 Sur 0 887.6 0.6 49
2019-03-30 19:00:00 11.3 5 Este 23 Noroeste 0 887.3 -0.1 45
2019-03-30 18:00:00 13.2 9 Nordeste 18 Nordeste 0 887 -0.8 35
2019-03-30 17:00:00 12.8 5 Noroeste 28 Noroeste 0 887 -1.3 35
2019-03-30 16:00:00 13.9 10 Sudoeste 29 Sur 0 887.4 -1.5 31
2019-03-30 15:00:00 15.1 18 Sur 34 Sur 0 887.8 -1.7 33
2019-03-30 14:00:00 16 17 Sur 31 Sur 0 888.3 -1.7 33
2019-03-30 13:00:00 15.6 15 Sudeste 31 Sur 0 888.9 -1.2 31
2019-03-30 12:00:00 11.5 8 Este 22 Sur 0 889.5 -0.6 42
2019-03-30 11:00:00 10.6 12 Sudeste 21 Sur 0 890 0 44
2019-03-30 10:00:00 8.2 8 Sur 15 Sur 0 890.1 0.2 50
2019-03-30 09:00:00 5.8 3 Sudoeste 15 Oeste 0 890.1 0.1 56
2019-03-30 08:00:00 2.9 4 Noroeste 17 Oeste 0 890 -0.3 60
2019-03-30 07:00:00 1.2 6 Noroeste 17 Oeste 0 889.9 -0.4 65
2019-03-30 06:00:00 1.6 6 Noroeste 17 Oeste 0 890 -0.4 64
2019-03-30 05:00:00 2.1 8 Noroeste 17 Oeste 0 890.3 0 63
2019-03-30 04:00:00 2.5 6 Sudeste 19 Sudeste 0 890.3 0 60
2019-03-30 03:00:00 4.1 15 Sudeste 19 Sudeste 0 890.4 -0.1 55
2019-03-30 02:00:00 4.6 6 Sudoeste 19 Oeste 0 890.3 -0.3 52
2019-03-30 01:00:00 5.4 12 Oeste 21 Oeste 0 890.3 -0.2 48
2019-03-30 00:00:00 5.1 13 Oeste -- -- 0 890.5 0 50
2019-03-29 23:00:00 5.6 7 Este 19 Oeste 0 890.6 0.6 46
2019-03-29 22:00:00 8.5 4 Norte 25 Sur 0 890.5 0.7 36
2019-03-29 21:00:00 10.3 15 Sudoeste -- -- 0 890.5 0.9 31
2019-03-29 20:00:00 11.4 -- -- -- -- 0 890 0.3 30
2019-03-29 19:00:00 14.1 23 Sur 32 Sur 0 889.8 -0.2 27
2019-03-29 18:00:00 16.1 20 Sur -- -- 0 889.6 -1 23
2019-03-29 17:00:00 16.9 -- -- -- -- 0 889.7 -1.5 23
2019-03-29 16:00:00 16.9 -- -- -- -- 0 890 -1.6 24
2019-03-29 15:00:00 17.4 17 Sudoeste -- -- 0 890.6 -1.4 26
2019-03-29 14:00:00 16.4 -- -- -- -- 0 891.2 -1.3 30
2019-03-29 13:00:00 15.4 -- -- -- -- 0 891.6 -1.1 31
2019-03-29 12:00:00 14.3 21 Sur 41 Sur 0 892 -0.9 35
2019-03-29 11:00:00 11.8 13 Sudeste 26 Sur 0 892.5 -0.5 41
2019-03-29 10:00:00 9.9 13 Sudeste 22 Sur 0 892.7 -0.4 45
2019-03-29 09:00:00 5.3 4 Oeste 20 Oeste 0 892.9 -0.2 46
2019-03-29 08:00:00 1.8 5 Noroeste 11 Noroeste 0 893 -0.1 56
2019-03-29 07:00:00 0.3 5 Oeste 15 Oeste 0 893.1 -0.4 63
2019-03-29 06:00:00 0 6 Oeste 17 Oeste 0 893.1 -0.9 64
2019-03-29 05:00:00 2.6 9 Noroeste 18 Oeste 0 893.1 -1.4 53
2019-03-29 04:00:00 3 11 Noroeste 19 Noroeste 0 893.5 -1.1 53
2019-03-29 03:00:00 3 9 Noroeste 17 Oeste 0 894 -0.9 56
2019-03-29 02:00:00 2.8 5 Oeste 15 Oeste 0 894.5 -0.6 54
2019-03-29 01:00:00 4.7 5 Norte 18 Oeste 0 894.6 -0.7 47
2019-03-29 00:00:00 4.9 5 Este 19 Oeste 0 894.9 -0.4 46
2019-03-28 23:00:00 5.9 12 Oeste 23 Oeste 0 895.1 0.1 41
2019-03-28 22:00:00 6.9 10 Noroeste 22 Oeste 0 895.3 0.4 40
2019-03-28 21:00:00 6.8 4 Norte 15 Oeste 0 895.3 0.7 44
2019-03-28 20:00:00 8.4 6 Nordeste 16 Norte 0 895 0.3 40
2019-03-28 19:00:00 13 7 Nordeste 24 Nordeste 0 894.9 -0.1 26
2019-03-28 18:00:00 15.7 10 Nordeste 25 Nordeste 0 894.6 -0.5 21
2019-03-28 17:00:00 16.6 8 Este 27 Este 0 894.7 -1.1 25
2019-03-28 16:00:00 17 9 Nordeste 34 Este 0 895 -1.2 21
2019-03-28 15:00:00 17.1 14 Este 33 Sudeste 0 895.1 -1.5 24
2019-03-28 14:00:00 16.2 13 Sudeste 32 Este 0 895.8 -1 23
2019-03-28 13:00:00 15 18 Sudeste 33 Este 0 896.2 -0.8 18
2019-03-28 12:00:00 15.8 10 Nordeste 29 Norte 0 896.6 -0.5 15
2019-03-28 11:00:00 13.7 12 Nordeste 28 Nordeste 0 896.8 -0.3 12
2019-03-28 10:00:00 11.9 11 Nordeste 27 Norte 0 897 0.5 14
2019-03-28 09:00:00 8.8 8 Nordeste 20 Noroeste 0 897.1 0.6 22
2019-03-28 08:00:00 4.1 7 Nordeste 21 Norte 0 897.1 1 37
2019-03-28 07:00:00 5.8 10 Norte 21 Noroeste 0 896.5 0.3 20
2019-03-28 06:00:00 4.7 6 Sudoeste 22 Oeste 0 896.5 0.3 21
2019-03-28 05:00:00 5.2 9 Oeste 19 Oeste 0 896.1 -0.2 21
2019-03-28 04:00:00 5.5 6 Nordeste 23 Noroeste 0 896.2 -0.5 20
2019-03-28 03:00:00 6.8 12 Noroeste 29 Norte 0 896.2 -0.5 17
2019-03-28 02:00:00 6.5 13 Norte 28 Norte 0 896.3 -0.1 15
2019-03-28 01:00:00 6.2 8 Norte 30 Norte 0 896.7 0.3 14
2019-03-28 00:00:00 5.8 7 Norte 24 Noroeste 0 896.7 0.5 19
2019-03-27 23:00:00 6.7 10 Noroeste 26 Noroeste 0 896.4 0.5 22
2019-03-27 22:00:00 6.5 9 Noroeste 21 Noroeste 0 896.4 1 27
2019-03-27 21:00:00 6.3 9 Sudoeste 22 Oeste 0 896.2 1 32
2019-03-27 20:00:00 7.5 13 Sudoeste 34 Noroeste 0 895.9 0.9 24
2019-03-27 19:00:00 10 14 Norte 31 Norte 0 895.4 0.5 15
2019-03-27 18:00:00 12.6 9 Norte 30 Norte 0 895.2 0.3 20
2019-03-27 17:00:00 14.8 10 Norte 30 Norte 0 895 -0.2 19
2019-03-27 16:00:00 16.1 9 Norte 33 Norte 0 894.9 -0.5 12
2019-03-27 15:00:00 15.6 13 Norte 28 Norte 0 894.9 -0.5 14
2019-03-27 14:00:00 15.5 11 Norte 28 Nordeste 0 895.2 -0.4 13
2019-03-27 13:00:00 16.1 9 Nordeste 28 Nordeste 0 895.4 0.2 12
2019-03-27 12:00:00 15.4 11 Este 25 Sudeste 0 895.4 0.3 10
2019-03-27 11:00:00 13.1 18 Sudeste 25 Sur 0 895.6 0.5 13
2019-03-27 10:00:00 11.6 9 Nordeste 24 Oeste 0 895.2 0.4 10
2019-03-27 09:00:00 8.1 9 Noroeste 20 Noroeste 0 895.1 0.7 13
2019-03-27 08:00:00 2.2 8 Noroeste 15 Noroeste 0 895.1 1.2 22
2019-03-27 07:00:00 0.9 9 Noroeste 18 Noroeste 0 894.8 0.9 23
2019-03-27 06:00:00 1.8 5 Noroeste 18 Oeste 0 894.4 0.2 20
2019-03-27 05:00:00 0.8 5 Oeste 15 Oeste 0 893.9 -0.6 19
2019-03-27 04:00:00 1.2 6 Noroeste 18 Oeste 0 893.9 -0.6 19
2019-03-27 03:00:00 0.2 4 Oeste 12 Sudoeste 0 894.2 -0.4 21
2019-03-27 02:00:00 0.5 6 Oeste 16 Este 0 894.5 0 28
2019-03-27 01:00:00 1.4 6 Noroeste 16 Oeste 0 894.5 0.4 22
2019-03-27 00:00:00 1.8 4 Sur 18 Sur 0 894.6 0.7 26
2019-03-26 23:00:00 3.1 5 Sur 20 Sur 0 894.5 1.2 20
2019-03-26 22:00:00 3.7 6 Oeste 22 Nordeste 0 894.1 1.2 18
2019-03-26 21:00:00 4 4 Oeste 17 Oeste 0 893.9 1.5 26
2019-03-26 20:00:00 6 7 Sudoeste 21 Oeste 0 893.3 0.8 21
2019-03-26 19:00:00 9.7 9 Nordeste 29 Nordeste 0 892.9 0.1 16
2019-03-26 18:00:00 13.1 10 Nordeste 36 Este 0 892.4 -1.1 13
2019-03-26 17:00:00 14.1 11 Nordeste 38 Este 0 892.5 -1.7 15
2019-03-26 16:00:00 13.1 20 Nordeste 42 Nordeste 0 892.8 -1.4 14
2019-03-26 15:00:00 13 14 Este 38 Este 0 893.5 -0.8 17
2019-03-26 14:00:00 13 13 Este 35 Nordeste 0 894.2 -0.3 16
2019-03-26 13:00:00 12.5 13 Este 37 Este 0 894.2 0.2 16
2019-03-26 12:00:00 -- 16 Este 34 Nordeste 0 894.3 0.4 --
2019-03-26 11:00:00 10 14 Nordeste 38 Este 0 894.5 1.5 --
2019-03-26 10:00:00 8.1 15 Nordeste 32 Nordeste 0 894 1.5 --
2019-03-26 09:00:00 5.3 8 Nordeste 20 Norte 0 893.9 1.7 --
2019-03-26 08:00:00 2.3 8 Norte 21 Noroeste 0 893 0.6 --
2019-03-26 07:00:00 2 12 Norte 30 Norte 0 892.5 -0.2 --
2019-03-26 06:00:00 1.5 10 Noroeste 28 Norte 0 892.2 -1.3 --
2019-03-26 05:00:00 1.5 12 Noroeste 27 Noroeste 0 892.4 -1.4 --
2019-03-26 04:00:00 1.7 15 Norte 32 Norte 0 892.7 -1.1 --
2019-03-26 03:00:00 1.6 13 Norte 31 Norte 0 893.5 0 --
2019-03-26 02:00:00 1.2 8 Noroeste 31 Norte 0 893.8 0.2 --
2019-03-26 01:00:00 1.1 14 Norte 38 Norte 0 893.8 0.4 --
2019-03-26 00:00:00 1.9 15 Noroeste 36 Noroeste 0 893.5 0 --
2019-03-25 23:00:00 3.3 11 Noroeste 36 Norte 0 893.6 0.3 --
2019-03-25 22:00:00 3.5 14 Norte 31 Norte 0 893.4 0 --
2019-03-25 21:00:00 4.4 14 Norte 30 Norte 0 893.5 0 --
2019-03-25 20:00:00 5.1 15 Norte 32 Norte 0 893.3 -0.3 --
2019-03-25 19:00:00 6.9 13 Norte 28 Norte 0 893.4 -0.4 --
2019-03-25 18:00:00 9 16 Norte 36 Norte 0 893.5 -0.3 --
2019-03-25 17:00:00 9.8 17 Norte 38 Norte 0 893.6 -0.7 --
2019-03-25 16:00:00 10.5 17 Norte 42 Norte 0 893.8 -0.8 --
2019-03-25 15:00:00 11.5 13 Norte 37 Norte 0 893.8 -1.2 --
2019-03-25 14:00:00 10.5 18 Norte 38 Norte 0 894.3 -0.5 --
2019-03-25 13:00:00 10.9 16 Norte 37 Norte 0 894.6 -0.2 --
2019-03-25 12:00:00 8.7 20 Norte 40 Norte 0 895 0.4 48
2019-03-25 11:00:00 8.1 19 Norte 40 Norte 0 894.8 0.7 --
2019-03-25 10:00:00 6.4 19 Norte 39 Norte 0 894.8 0.9 --
2019-03-25 09:00:00 5.6 12 Norte 33 Noroeste 0 894.6 0.9 --
2019-03-25 08:00:00 3.1 12 Noroeste 27 Noroeste 0 894.1 0.3 --
2019-03-25 07:00:00 1 6 Noroeste 15 Noroeste 0 893.9 0 4
2019-03-25 06:00:00 1.3 9 Norte 15 Norte 0 893.7 -0.5 --
2019-03-25 05:00:00 2.3 4 Sur 18 Oeste 0 893.8 -0.7 --
2019-03-25 04:00:00 4.2 8 Noroeste 21 Oeste 0 893.9 -1 --
2019-03-25 03:00:00 4.7 7 Oeste -- -- 0 894.2 -0.9 --
2019-03-25 02:00:00 4.8 7 Oeste 20 Oeste 0 894.5 -0.9 4
2019-03-25 01:00:00 5.8 6 Norte 23 Oeste 0 894.9 -0.6 --
2019-03-25 00:00:00 6.7 9 Noroeste 26 Noroeste 0 895.1 0.2 --